createdAt,value
2019-03-13T00:01:28.316Z,94733.14
2019-03-13T00:03:59.224Z,94731.58
2019-03-13T00:06:30.049Z,94722.00
2019-03-13T00:09:04.987Z,94719.34
2019-03-13T00:11:37.041Z,94720.66
2019-03-13T00:14:08.033Z,94711.64
2019-03-13T00:16:38.890Z,94716.16
2019-03-13T00:19:09.696Z,94720.95
2019-03-13T00:21:45.013Z,94720.69
2019-03-13T00:24:16.281Z,94719.09
2019-03-13T00:26:48.195Z,94729.98
2019-03-13T00:29:18.930Z,94718.31
2019-03-13T00:31:49.732Z,94725.98
2019-03-13T00:34:22.353Z,94735.82
2019-03-13T00:36:53.278Z,94737.13
2019-03-13T00:39:25.724Z,94726.27
2019-03-13T00:41:56.536Z,94742.73
2019-03-13T00:44:29.439Z,94743.51
2019-03-13T00:47:00.283Z,94742.22
2019-03-13T00:49:37.150Z,94746.98
2019-03-13T00:52:07.927Z,94739.26
2019-03-13T00:54:39.278Z,94742.20
2019-03-13T00:57:12.861Z,94734.75
2019-03-13T00:59:43.965Z,94743.27
2019-03-13T01:02:32.317Z,94739.53
2019-03-13T01:05:10.163Z,94742.73
2019-03-13T01:07:46.455Z,94740.61
2019-03-13T01:10:13.620Z,94741.92
2019-03-13T01:12:44.533Z,94748.30
2019-03-13T01:15:15.466Z,94743.77
2019-03-13T01:17:46.706Z,94756.24
2019-03-13T01:20:17.493Z,94757.81
2019-03-13T01:22:51.061Z,94763.89
2019-03-13T01:25:22.255Z,94761.23
2019-03-13T01:27:52.983Z,94736.56
2019-03-13T01:30:23.881Z,94764.67
2019-03-13T01:32:57.754Z,94741.84
2019-03-13T01:35:32.602Z,94751.09
2019-03-13T01:38:08.491Z,94745.25
2019-03-13T01:40:39.805Z,94759.01
2019-03-13T01:43:10.727Z,94760.55
2019-03-13T01:45:41.464Z,94762.13
2019-03-13T01:48:12.757Z,94761.03
2019-03-13T01:50:43.506Z,94755.45
2019-03-13T01:53:14.878Z,94745.89
2019-03-13T01:55:46.740Z,94744.81
2019-03-13T01:58:19.021Z,94738.19
2019-03-13T02:00:51.424Z,94737.64
2019-03-13T02:03:22.216Z,94734.42
2019-03-13T02:05:55.962Z,94736.30
2019-03-13T02:08:28.173Z,94742.89
2019-03-13T02:10:58.938Z,94759.85
2019-03-13T02:13:33.135Z,94757.48
2019-03-13T02:16:04.626Z,94755.33
2019-03-13T02:18:35.414Z,94736.52
2019-03-13T02:21:06.209Z,94762.73
2019-03-13T02:23:37.512Z,94747.14
2019-03-13T02:26:08.421Z,94751.67
2019-03-13T02:28:39.589Z,94753.55
2019-03-13T02:31:11.442Z,94757.55
2019-03-13T02:33:42.311Z,94764.73
2019-03-13T02:36:13.623Z,94751.50
2019-03-13T02:38:44.450Z,94756.25
2019-03-13T02:41:16.546Z,94770.83
2019-03-13T02:43:47.728Z,94767.91
2019-03-13T02:46:18.468Z,94766.30
2019-03-13T02:48:49.370Z,94764.96
2019-03-13T02:51:20.606Z,94769.48
2019-03-13T02:53:52.366Z,94769.50
2019-03-13T02:56:23.788Z,94774.56
2019-03-13T02:58:55.246Z,94775.61
2019-03-13T03:01:42.100Z,94781.43
2019-03-13T03:04:13.476Z,94789.14
2019-03-13T03:06:44.893Z,94794.72
2019-03-13T03:09:15.735Z,94801.34
2019-03-13T03:11:46.618Z,94804.50
2019-03-13T03:14:17.749Z,94812.18
2019-03-13T03:16:48.567Z,94824.86
2019-03-13T03:19:19.458Z,94833.05
2019-03-13T03:21:50.360Z,94836.76
2019-03-13T03:24:21.189Z,94842.55
2019-03-13T03:26:52.492Z,94845.73
2019-03-13T03:29:23.466Z,94853.15
2019-03-13T03:31:54.437Z,94860.84
2019-03-13T03:34:25.648Z,94860.86
2019-03-13T03:36:56.451Z,94878.63
2019-03-13T03:39:27.341Z,94875.69
2019-03-13T03:41:58.189Z,94894.50
2019-03-13T03:44:29.062Z,94903.47
2019-03-13T03:47:00.415Z,94916.94
2019-03-13T03:49:31.210Z,94943.64
2019-03-13T03:52:02.052Z,94950.66
2019-03-13T03:54:34.444Z,94978.47
2019-03-13T03:57:05.282Z,94963.21
2019-03-13T03:59:36.137Z,94962.05
2019-03-13T04:02:07.526Z,94973.36
2019-03-13T04:04:38.535Z,94971.47
2019-03-13T04:07:09.471Z,94988.30
2019-03-13T04:09:40.692Z,94988.78
2019-03-13T04:12:16.162Z,94984.77
2019-03-13T04:14:46.977Z,94989.45
2019-03-13T04:17:18.061Z,95007.68
2019-03-13T04:19:48.837Z,95007.91
2019-03-13T04:22:22.061Z,95005.23
2019-03-13T04:24:52.889Z,95007.30
2019-03-13T04:27:23.819Z,95012.03
2019-03-13T04:29:55.064Z,95012.07
2019-03-13T04:32:26.317Z,95016.59
2019-03-13T04:34:57.489Z,95021.33
2019-03-13T04:37:28.297Z,95029.73
2019-03-13T04:39:59.104Z,95036.63
2019-03-13T04:42:29.863Z,95044.08
2019-03-13T04:45:00.725Z,95061.50
2019-03-13T04:47:35.118Z,95053.29
2019-03-13T04:50:07.530Z,95056.95
2019-03-13T04:52:39.471Z,95064.75
2019-03-13T04:55:13.474Z,95072.52
2019-03-13T04:57:44.367Z,95081.42
2019-03-13T05:00:15.496Z,95094.76
2019-03-13T05:02:49.074Z,95101.08
2019-03-13T05:06:02.859Z,95105.80
2019-03-13T05:09:00.425Z,95115.33
2019-03-13T05:11:32.702Z,95120.09
2019-03-13T05:14:03.500Z,95129.16
2019-03-13T05:16:34.429Z,95128.53
2019-03-13T05:19:05.331Z,95132.27
2019-03-13T05:21:36.166Z,95134.62
2019-03-13T05:24:07.347Z,95139.39
2019-03-13T05:26:38.949Z,95145.23
2019-03-13T05:29:10.279Z,95140.76
2019-03-13T05:31:41.381Z,95142.27
2019-03-13T05:34:23.352Z,95146.23
2019-03-13T05:37:24.438Z,95150.19
2019-03-13T05:39:58.765Z,95153.56
2019-03-13T05:42:30.097Z,95156.20
2019-03-13T05:45:02.874Z,95161.15
2019-03-13T05:47:34.065Z,95163.71
2019-03-13T05:50:06.116Z,95162.80
2019-03-13T05:52:36.925Z,95155.45
2019-03-13T05:55:08.204Z,95154.02
2019-03-13T05:57:39.312Z,95155.50
2019-03-13T06:00:10.236Z,95157.48
2019-03-13T06:02:41.587Z,95157.34
2019-03-13T06:05:12.520Z,95150.34
2019-03-13T06:07:43.356Z,95152.16
2019-03-13T06:10:14.342Z,95161.17
2019-03-13T06:12:45.135Z,95171.18
2019-03-13T06:15:18.540Z,95167.62
2019-03-13T06:17:49.386Z,95174.82
2019-03-13T06:20:20.176Z,95177.80
2019-03-13T06:22:53.880Z,95183.03
2019-03-13T06:25:26.280Z,95188.00
2019-03-13T06:27:57.382Z,95191.84
2019-03-13T06:30:28.825Z,95188.52
2019-03-13T06:33:00.216Z,95192.09
2019-03-13T06:35:31.060Z,95200.08
2019-03-13T06:38:01.851Z,95217.55
2019-03-13T06:40:33.327Z,95214.45
2019-03-13T06:43:04.481Z,95221.63
2019-03-13T06:45:35.285Z,95222.17
2019-03-13T06:48:09.107Z,95225.39
2019-03-13T06:50:42.824Z,95224.06
2019-03-13T06:53:18.695Z,95221.02
2019-03-13T06:55:52.294Z,95222.78
2019-03-13T06:58:38.080Z,95213.11
2019-03-13T07:01:33.964Z,95208.00
2019-03-13T07:04:22.599Z,95196.16
2019-03-13T07:07:21.544Z,95206.37
2019-03-13T07:10:08.779Z,95206.22
2019-03-13T07:13:00.927Z,95213.97
2019-03-13T07:16:02.663Z,95207.12
2019-03-13T07:18:59.937Z,95197.63
2019-03-13T07:21:49.656Z,95191.84
2019-03-13T07:24:30.339Z,95199.02
2019-03-13T07:27:28.879Z,95200.63
2019-03-13T07:30:11.742Z,95200.91
2019-03-13T07:33:01.397Z,95194.02
2019-03-13T07:36:06.783Z,95203.50
2019-03-13T07:38:56.359Z,95212.99
2019-03-13T07:41:45.011Z,95225.28
2019-03-13T07:44:40.845Z,95231.55
2019-03-13T07:47:21.936Z,95218.06
2019-03-13T07:50:14.603Z,95215.05
2019-03-13T07:53:10.925Z,95221.90
2019-03-13T07:56:00.924Z,95228.38
2019-03-13T07:58:56.879Z,95224.97
2019-03-13T08:01:36.375Z,95209.45
2019-03-13T08:04:14.753Z,95215.55
2019-03-13T08:07:10.299Z,95218.39
2019-03-13T08:10:04.224Z,95212.98
2019-03-13T08:12:54.637Z,95211.67
2019-03-13T08:15:53.494Z,95215.36
2019-03-13T08:18:43.070Z,95219.27
2019-03-13T08:21:52.379Z,95216.27
2019-03-13T08:24:33.824Z,95229.91
2019-03-13T08:27:32.702Z,95222.68
2019-03-13T08:30:22.315Z,95219.29
2019-03-13T08:33:12.422Z,95218.40
2019-03-13T08:35:57.208Z,95213.42
2019-03-13T08:38:45.591Z,95209.30
2019-03-13T08:41:28.016Z,95205.80
2019-03-13T08:44:19.245Z,95203.95
2019-03-13T08:47:07.155Z,95187.19
2019-03-13T08:49:57.127Z,95199.36
2019-03-13T08:52:29.820Z,95191.34
2019-03-13T08:55:25.617Z,95186.64
2019-03-13T08:58:07.528Z,95169.95
2019-03-13T09:01:03.466Z,95183.49
2019-03-13T09:03:53.529Z,95185.54
2019-03-13T09:06:49.217Z,95189.92
2019-03-13T09:09:38.048Z,95185.92
2019-03-13T09:12:30.437Z,95192.75
2019-03-13T09:15:20.822Z,95190.20
2019-03-13T09:18:06.669Z,95199.83
2019-03-13T09:20:52.227Z,95206.21
2019-03-13T09:23:40.345Z,95192.70
2019-03-13T09:26:29.380Z,95183.85
2019-03-13T09:29:17.753Z,95172.55
2019-03-13T09:32:04.166Z,95177.00
2019-03-13T09:34:56.810Z,95184.63
2019-03-13T09:37:53.906Z,95182.11
2019-03-13T09:40:49.818Z,95174.45
2019-03-13T09:43:45.851Z,95173.02
2019-03-13T09:46:33.442Z,95172.62
2019-03-13T09:49:26.607Z,95169.33
2019-03-13T09:52:13.732Z,95161.37
2019-03-13T09:55:04.667Z,95157.43
2019-03-13T09:58:10.132Z,95157.46
2019-03-13T10:01:11.042Z,95146.47
2019-03-13T10:04:11.925Z,95141.88
2019-03-13T10:06:57.005Z,95143.45
2019-03-13T10:09:47.031Z,95139.97
2019-03-13T10:12:29.730Z,95134.07
2019-03-13T10:15:28.338Z,95134.79
2019-03-13T10:18:26.993Z,95122.83
2019-03-13T10:21:23.849Z,95125.61
2019-03-13T10:24:18.848Z,95118.00
2019-03-13T10:27:12.916Z,95134.49
2019-03-13T10:29:49.580Z,95136.80
2019-03-13T10:32:27.191Z,95127.34
2019-03-13T10:35:14.401Z,95128.38
2019-03-13T10:38:16.541Z,95138.48
2019-03-13T10:41:23.219Z,95125.82
2019-03-13T10:44:12.813Z,95117.63
2019-03-13T10:47:10.198Z,95113.84
2019-03-13T10:50:00.465Z,95125.48
2019-03-13T10:52:50.153Z,95122.69
2019-03-13T10:55:45.784Z,95142.70
2019-03-13T10:58:47.966Z,95149.44
2019-03-13T11:01:37.586Z,95183.15
2019-03-13T11:04:22.690Z,95180.95
2019-03-13T11:07:07.430Z,95186.20
2019-03-13T11:09:57.153Z,95175.41
2019-03-13T11:13:04.997Z,95170.94
2019-03-13T11:15:48.035Z,95159.33
2019-03-13T11:18:39.250Z,95160.30
2019-03-13T11:21:27.109Z,95155.66
2019-03-13T11:24:18.359Z,95144.70
2019-03-13T11:27:01.254Z,95144.77
2019-03-13T11:30:03.729Z,95133.98
2019-03-13T11:32:52.386Z,95128.34
2019-03-13T11:36:01.130Z,95131.86
2019-03-13T11:39:02.348Z,95127.30
2019-03-13T11:42:05.478Z,95115.14
2019-03-13T11:44:46.103Z,95121.59
2019-03-13T11:47:46.031Z,95111.39
2019-03-13T11:50:27.208Z,95107.05
2019-03-13T11:53:12.038Z,95087.86
2019-03-13T11:56:06.986Z,95095.90
2019-03-13T11:58:56.954Z,95088.92
2019-03-13T12:02:06.785Z,95086.15
2019-03-13T12:04:53.093Z,95087.59
2019-03-13T12:07:39.850Z,95065.13
2019-03-13T12:10:33.862Z,95047.42
2019-03-13T12:13:35.400Z,95055.14
2019-03-13T12:16:20.657Z,95051.14
2019-03-13T12:19:14.705Z,95054.56
2019-03-13T12:22:20.083Z,95051.31
2019-03-13T12:25:07.493Z,95051.03
2019-03-13T12:27:59.836Z,95054.95
2019-03-13T12:30:48.321Z,95054.41
2019-03-13T12:33:29.288Z,95061.22
2019-03-13T12:36:34.335Z,95077.31
2019-03-13T12:39:29.292Z,95084.47
2019-03-13T12:42:26.708Z,95068.88
2019-03-13T12:45:16.467Z,95054.45
2019-03-13T12:48:16.600Z,95047.80
2019-03-13T12:50:58.937Z,95034.41
2019-03-13T12:53:58.316Z,95027.62
2019-03-13T12:56:44.140Z,95013.88
2019-03-13T12:59:40.166Z,95008.59
2019-03-13T13:02:34.759Z,94998.78
2019-03-13T13:05:30.757Z,94997.45
2019-03-13T13:08:33.290Z,95007.85
2019-03-13T13:11:55.012Z,94986.05
2019-03-13T13:15:33.828Z,94995.08
2019-03-13T13:18:47.623Z,94992.69
2019-03-13T13:21:32.249Z,94999.09
2019-03-13T13:24:36.037Z,94998.81
2019-03-13T13:27:10.547Z,94980.47
2019-03-13T13:29:44.396Z,94985.50
2019-03-13T13:32:21.222Z,94987.09
2019-03-13T13:34:58.179Z,94971.17
2019-03-13T13:37:30.537Z,94982.33
2019-03-13T13:40:01.937Z,94976.22
2019-03-13T13:42:49.123Z,94994.55
2019-03-13T13:45:57.346Z,94981.55
2019-03-13T13:48:28.378Z,94987.41
2019-03-13T13:50:59.262Z,94987.41
2019-03-13T13:53:30.040Z,94988.72
2019-03-13T13:56:01.559Z,94994.83
2019-03-13T13:58:33.421Z,94988.70
2019-03-13T14:01:07.379Z,94990.30
2019-03-13T14:03:39.821Z,94988.70
2019-03-13T14:06:10.614Z,95013.66
2019-03-13T14:08:44.450Z,94994.25
2019-03-13T14:11:18.619Z,95001.97
2019-03-13T14:14:01.838Z,95012.61
2019-03-13T14:16:32.785Z,95011.56
2019-03-13T14:19:08.949Z,95004.14
2019-03-13T14:21:41.327Z,95016.66
2019-03-13T14:24:12.162Z,95004.16
2019-03-13T14:26:45.102Z,95001.49
2019-03-13T14:29:17.179Z,94997.50
2019-03-13T14:31:54.913Z,94989.52
2019-03-13T14:34:26.024Z,94990.31
2019-03-13T14:36:56.893Z,95001.73
2019-03-13T14:39:27.902Z,94997.45
2019-03-13T14:42:18.578Z,94989.99
2019-03-13T14:44:49.716Z,94988.13
2019-03-13T14:47:20.511Z,94979.36
2019-03-13T14:49:52.017Z,94981.73
2019-03-13T14:52:24.380Z,94985.44
2019-03-13T14:55:01.749Z,94978.29
2019-03-13T14:57:33.491Z,94973.79
2019-03-13T15:00:06.328Z,94965.03
2019-03-13T15:02:41.763Z,94961.06
2019-03-13T15:05:18.865Z,94972.48
2019-03-13T15:07:49.794Z,94965.84
2019-03-13T15:10:23.513Z,94966.88
2019-03-13T15:12:58.671Z,94958.13
2019-03-13T15:16:12.100Z,94956.77
2019-03-13T15:21:48.302Z,94952.79
2019-03-13T15:24:23.917Z,94948.27
2019-03-13T15:26:55.224Z,94946.69
2019-03-13T15:29:29.048Z,94955.96
2019-03-13T15:32:03.272Z,94950.63
2019-03-13T15:34:35.682Z,94969.21
2019-03-13T15:37:06.454Z,94953.81
2019-03-13T15:39:37.970Z,94955.94
2019-03-13T15:42:09.311Z,94946.12
2019-03-13T15:44:41.480Z,94957.27
2019-03-13T15:47:13.290Z,94966.30
2019-03-13T15:49:46.651Z,94954.35
2019-03-13T15:52:23.384Z,94949.81
2019-03-13T15:54:55.522Z,94944.47
2019-03-13T15:57:28.552Z,94942.34
2019-03-13T16:00:04.665Z,94938.34
2019-03-13T16:02:36.827Z,94936.48
2019-03-13T16:05:08.191Z,94939.94
2019-03-13T16:07:40.581Z,94946.56
2019-03-13T16:10:15.351Z,94950.26
2019-03-13T16:12:51.808Z,94950.52
2019-03-13T16:15:30.271Z,94948.13
2019-03-13T16:18:06.233Z,94941.77
2019-03-13T16:20:37.150Z,94951.56
2019-03-13T16:23:11.250Z,94948.91
2019-03-13T16:25:42.540Z,94949.69
2019-03-13T16:28:23.131Z,94938.27
2019-03-13T16:30:57.496Z,94936.42
2019-03-13T16:33:31.259Z,94944.88
2019-03-13T16:36:02.538Z,94950.17
2019-03-13T16:38:33.442Z,94949.08
2019-03-13T16:41:05.109Z,94933.95
2019-03-13T16:43:39.097Z,94923.86
2019-03-13T16:46:10.312Z,94925.18
2019-03-13T16:48:47.369Z,94930.72
2019-03-13T16:51:19.550Z,94939.21
2019-03-13T16:53:59.263Z,94931.76
2019-03-13T16:56:32.596Z,94925.39
2019-03-13T16:59:03.506Z,94920.86
2019-03-13T17:01:34.592Z,94919.00
2019-03-13T17:04:06.589Z,94916.34
2019-03-13T17:06:40.659Z,94917.91
2019-03-13T17:09:14.584Z,94907.31
2019-03-13T17:11:54.277Z,94918.94
2019-03-13T17:14:30.397Z,94920.52
2019-03-13T17:17:02.036Z,94914.68
2019-03-13T17:19:39.647Z,94909.88
2019-03-13T17:22:13.673Z,94893.69
2019-03-13T17:24:44.560Z,94905.61
2019-03-13T17:27:18.716Z,94905.09
2019-03-13T17:29:49.672Z,94896.86
2019-03-13T17:32:25.420Z,94896.58
2019-03-13T17:35:04.108Z,94899.49
2019-03-13T17:37:38.854Z,94900.30
2019-03-13T17:40:13.301Z,94887.83
2019-03-13T17:42:47.111Z,94887.58
2019-03-13T17:45:20.649Z,94889.44
2019-03-13T17:48:07.318Z,94893.95
2019-03-13T17:50:40.029Z,94895.55
2019-03-13T17:53:14.202Z,94898.73
2019-03-13T17:55:49.641Z,94908.03
2019-03-13T17:58:22.672Z,94890.27
2019-03-13T18:00:59.768Z,94908.58
2019-03-13T18:03:30.892Z,94896.38
2019-03-13T18:06:05.563Z,94892.36
2019-03-13T18:08:36.539Z,94897.11
2019-03-13T18:11:28.964Z,94900.28
2019-03-13T18:14:00.452Z,94894.98
2019-03-13T18:16:37.323Z,94899.52
2019-03-13T18:19:16.389Z,94895.27
2019-03-13T18:21:47.512Z,94902.94
2019-03-13T18:24:23.276Z,94906.64
2019-03-13T18:26:54.383Z,94915.10
2019-03-13T18:29:26.888Z,94908.73
2019-03-13T18:32:04.420Z,94919.78
2019-03-13T18:34:41.266Z,94919.97
2019-03-13T18:37:19.245Z,94934.67
2019-03-13T18:39:53.490Z,94933.80
2019-03-13T18:42:33.932Z,94937.95
2019-03-13T18:45:05.534Z,94927.89
2019-03-13T18:47:39.523Z,94924.16
2019-03-13T18:50:13.862Z,94911.94
2019-03-13T18:52:46.938Z,94921.17
2019-03-13T18:55:18.358Z,94924.56
2019-03-13T18:57:54.580Z,94923.73
2019-03-13T19:00:31.837Z,94927.11
2019-03-13T19:03:07.995Z,94927.59
2019-03-13T19:05:39.533Z,94921.68
2019-03-13T19:08:13.990Z,94929.55
2019-03-13T19:10:45.413Z,94932.47
2019-03-13T19:13:16.932Z,94941.20
2019-03-13T19:15:47.980Z,94932.92
2019-03-13T19:18:19.416Z,94935.53
2019-03-13T19:20:54.084Z,94930.75
2019-03-13T19:23:33.822Z,94933.16
2019-03-13T19:26:05.220Z,94933.68
2019-03-13T19:28:42.875Z,94927.55
2019-03-13T19:31:33.968Z,94921.19
2019-03-13T19:34:07.005Z,94925.43
2019-03-13T19:36:40.872Z,94930.72
2019-03-13T19:39:13.658Z,94922.78
2019-03-13T19:41:48.884Z,94923.83
2019-03-13T19:44:27.248Z,94924.63
2019-03-13T19:47:09.315Z,94915.89
2019-03-13T19:49:44.447Z,94915.13
2019-03-13T19:52:26.154Z,94906.16
2019-03-13T19:54:59.254Z,94912.52
2019-03-13T19:57:34.398Z,94913.05
2019-03-13T20:00:07.497Z,94917.05
2019-03-13T20:02:43.671Z,94914.44
2019-03-13T20:05:22.992Z,94920.28
2019-03-13T20:08:02.060Z,94919.48
2019-03-13T20:10:38.780Z,94903.62
2019-03-13T20:13:10.448Z,94897.31
2019-03-13T20:15:50.671Z,94886.73
2019-03-13T20:18:28.921Z,94887.25
2019-03-13T20:21:06.728Z,94889.13
2019-03-13T20:23:39.147Z,94894.18
2019-03-13T20:26:10.675Z,94897.10
2019-03-13T20:28:51.067Z,94893.41
2019-03-13T20:31:33.029Z,94897.91
2019-03-13T20:34:12.292Z,94904.23
2019-03-13T20:36:52.625Z,94900.55
2019-03-13T20:39:40.276Z,94897.38
2019-03-13T20:42:16.779Z,94891.29
2019-03-13T20:44:52.761Z,94890.52
2019-03-13T20:47:31.922Z,94892.64
2019-03-13T20:50:07.362Z,94892.89
2019-03-13T20:52:45.857Z,94899.78
2019-03-13T20:55:19.980Z,94894.73
2019-03-13T20:57:53.838Z,94898.42
2019-03-13T21:00:34.577Z,94893.66
2019-03-13T21:03:33.057Z,94898.70
2019-03-13T21:06:38.003Z,94896.06
2019-03-13T21:09:10.030Z,94915.10
2019-03-13T21:11:45.374Z,94901.07
2019-03-13T21:14:26.428Z,94903.72
2019-03-13T21:17:02.416Z,94889.44
2019-03-13T21:19:36.957Z,94893.69
2019-03-13T21:22:28.355Z,94894.49
2019-03-13T21:25:01.796Z,94889.48
2019-03-13T21:27:37.649Z,94892.13
2019-03-13T21:30:14.994Z,94887.32
2019-03-13T21:32:50.200Z,94883.88
2019-03-13T21:35:22.874Z,94882.24
2019-03-13T21:37:54.379Z,94889.63
2019-03-13T21:40:32.041Z,94881.62
2019-03-13T21:43:17.253Z,94898.98
2019-03-13T21:45:52.202Z,94905.80
2019-03-13T21:48:25.787Z,94892.02
2019-03-13T21:50:58.554Z,94908.34
2019-03-13T21:53:30.195Z,94901.16
2019-03-13T21:56:01.783Z,94907.21
2019-03-13T21:58:33.650Z,94912.22
2019-03-13T22:01:19.677Z,94901.89
2019-03-13T22:03:44.839Z,94912.98
2019-03-13T22:06:28.581Z,94917.22
2019-03-13T22:08:55.927Z,94923.83
2019-03-13T22:11:27.581Z,94921.19
2019-03-13T22:13:59.121Z,94932.56
2019-03-13T22:16:30.328Z,94925.68
2019-03-13T22:19:04.269Z,94918.02
2019-03-13T22:21:36.938Z,94922.23
2019-03-13T22:24:10.058Z,94922.51
2019-03-13T22:26:44.388Z,94921.98
2019-03-13T22:29:18.589Z,94926.47
2019-03-13T22:31:50.486Z,94931.20
2019-03-13T22:34:21.543Z,94929.36
2019-03-13T22:36:52.959Z,94940.70
2019-03-13T22:39:25.260Z,94926.12
2019-03-13T22:41:56.648Z,94923.47
2019-03-13T22:44:27.614Z,94925.59
2019-03-13T22:46:58.553Z,94931.69
2019-03-13T22:49:30.455Z,94930.08
2019-03-13T22:52:04.068Z,94926.12
2019-03-13T22:54:37.193Z,94929.28
2019-03-13T22:57:14.405Z,94935.61
2019-03-13T22:59:47.836Z,94936.69
2019-03-13T23:02:20.162Z,94939.05
2019-03-13T23:04:52.029Z,94944.30
2019-03-13T23:07:26.012Z,94941.13
2019-03-13T23:09:59.869Z,94943.53
2019-03-13T23:12:34.204Z,94939.33
2019-03-13T23:15:05.598Z,94946.19
2019-03-13T23:17:36.640Z,94951.18
2019-03-13T23:20:07.563Z,94960.47
2019-03-13T23:22:40.087Z,94944.86
2019-03-13T23:25:11.483Z,94949.90
2019-03-13T23:27:42.412Z,94951.42
2019-03-13T23:30:13.513Z,94960.95
2019-03-13T23:33:05.308Z,94951.70
2019-03-13T23:35:40.636Z,94942.93
2019-03-13T23:38:14.610Z,94956.39
2019-03-13T23:41:01.246Z,94956.09
2019-03-13T23:43:32.072Z,94960.54
2019-03-13T23:46:04.119Z,94966.86
2019-03-13T23:48:35.259Z,94965.73
2019-03-13T23:51:06.342Z,94976.77
2019-03-13T23:53:37.455Z,94983.38
2019-03-13T23:56:23.695Z,94982.91
2019-03-13T23:59:02.646Z,94979.22
